sensor_id;sensor_type;location;lat;lon;timestamp;P1;durP1;ratioP1;P2;durP2;ratioP2
14528;SDS011;7351;51.194;4.098;2023-05-02T00:00:54;11.77;;;10.93;;
14528;SDS011;7351;51.194;4.098;2023-05-02T00:03:21;11.27;;;10.37;;
14528;SDS011;7351;51.194;4.098;2023-05-02T00:05:50;11.80;;;11.00;;
14528;SDS011;7351;51.194;4.098;2023-05-02T00:08:17;11.23;;;10.47;;
14528;SDS011;7351;51.194;4.098;2023-05-02T00:10:44;10.23;;;9.53;;
14528;SDS011;7351;51.194;4.098;2023-05-02T00:13:11;11.37;;;10.37;;
14528;SDS011;7351;51.194;4.098;2023-05-02T00:15:37;12.20;;;11.20;;
14528;SDS011;7351;51.194;4.098;2023-05-02T00:18:04;11.23;;;10.53;;
14528;SDS011;7351;51.194;4.098;2023-05-02T00:20:31;11.17;;;10.33;;
14528;SDS011;7351;51.194;4.098;2023-05-02T00:23:00;11.70;;;10.90;;
14528;SDS011;7351;51.194;4.098;2023-05-02T00:25:27;11.90;;;10.90;;
14528;SDS011;7351;51.194;4.098;2023-05-02T00:27:53;12.33;;;11.33;;
14528;SDS011;7351;51.194;4.098;2023-05-02T00:30:20;10.27;;;9.50;;
14528;SDS011;7351;51.194;4.098;2023-05-02T00:32:47;12.87;;;11.87;;
14528;SDS011;7351;51.194;4.098;2023-05-02T00:35:14;12.30;;;11.23;;
14528;SDS011;7351;51.194;4.098;2023-05-02T00:37:41;12.03;;;11.13;;
14528;SDS011;7351;51.194;4.098;2023-05-02T00:40:10;11.40;;;10.60;;
14528;SDS011;7351;51.194;4.098;2023-05-02T00:42:38;12.27;;;11.37;;
14528;SDS011;7351;51.194;4.098;2023-05-02T00:45:05;12.10;;;11.30;;
14528;SDS011;7351;51.194;4.098;2023-05-02T00:47:33;12.50;;;11.70;;
14528;SDS011;7351;51.194;4.098;2023-05-02T00:50:00;12.20;;;11.43;;
14528;SDS011;7351;51.194;4.098;2023-05-02T00:52:29;12.30;;;11.50;;
14528;SDS011;7351;51.194;4.098;2023-05-02T00:54:58;12.83;;;11.97;;
14528;SDS011;7351;51.194;4.098;2023-05-02T00:57:28;11.47;;;10.67;;
14528;SDS011;7351;51.194;4.098;2023-05-02T00:59:55;13.13;;;12.23;;
14528;SDS011;7351;51.194;4.098;2023-05-02T01:02:26;12.30;;;11.50;;
14528;SDS011;7351;51.194;4.098;2023-05-02T01:05:00;12.97;;;12.07;;
14528;SDS011;7351;51.194;4.098;2023-05-02T01:07:35;11.73;;;11.03;;
14528;SDS011;7351;51.194;4.098;2023-05-02T01:10:14;13.37;;;12.47;;
14528;SDS011;7351;51.194;4.098;2023-05-02T01:12:50;14.40;;;13.20;;
14528;SDS011;7351;51.194;4.098;2023-05-02T01:15:23;12.57;;;11.70;;
14528;SDS011;7351;51.194;4.098;2023-05-02T01:17:51;13.03;;;11.93;;
14528;SDS011;7351;51.194;4.098;2023-05-02T01:20:20;14.30;;;13.33;;
14528;SDS011;7351;51.194;4.098;2023-05-02T01:22:51;13.07;;;12.17;;
14528;SDS011;7351;51.194;4.098;2023-05-02T01:25:28;14.23;;;13.20;;
14528;SDS011;7351;51.194;4.098;2023-05-02T01:28:03;14.43;;;13.30;;
14528;SDS011;7351;51.194;4.098;2023-05-02T01:30:37;15.30;;;14.20;;
14528;SDS011;7351;51.194;4.098;2023-05-02T01:33:08;14.00;;;12.83;;
14528;SDS011;7351;51.194;4.098;2023-05-02T01:35:38;14.57;;;13.57;;
14528;SDS011;7351;51.194;4.098;2023-05-02T01:38:07;13.80;;;12.90;;
14528;SDS011;7351;51.194;4.098;2023-05-02T01:40:35;14.97;;;13.97;;
14528;SDS011;7351;51.194;4.098;2023-05-02T01:43:03;13.63;;;12.73;;
14528;SDS011;7351;51.194;4.098;2023-05-02T01:45:32;13.50;;;12.50;;
14528;SDS011;7351;51.194;4.098;2023-05-02T01:48:03;13.83;;;12.93;;
14528;SDS011;7351;51.194;4.098;2023-05-02T01:50:32;14.23;;;12.97;;
14528;SDS011;7351;51.194;4.098;2023-05-02T01:53:01;12.90;;;12.00;;
14528;SDS011;7351;51.194;4.098;2023-05-02T01:55:29;12.63;;;11.83;;
14528;SDS011;7351;51.194;4.098;2023-05-02T01:57:59;13.20;;;12.30;;
14528;SDS011;7351;51.194;4.098;2023-05-02T02:00:27;12.83;;;12.03;;
14528;SDS011;7351;51.194;4.098;2023-05-02T02:02:55;13.97;;;12.87;;
14528;SDS011;7351;51.194;4.098;2023-05-02T02:05:24;13.87;;;12.97;;
14528;SDS011;7351;51.194;4.098;2023-05-02T02:07:53;14.60;;;13.60;;
14528;SDS011;7351;51.194;4.098;2023-05-02T02:10:20;13.73;;;12.73;;
14528;SDS011;7351;51.194;4.098;2023-05-02T02:12:52;13.17;;;12.33;;
14528;SDS011;7351;51.194;4.098;2023-05-02T02:15:24;14.03;;;12.83;;
14528;SDS011;7351;51.194;4.098;2023-05-02T02:17:56;14.67;;;13.67;;
14528;SDS011;7351;51.194;4.098;2023-05-02T02:20:27;13.27;;;12.37;;
14528;SDS011;7351;51.194;4.098;2023-05-02T02:22:56;13.17;;;12.17;;
14528;SDS011;7351;51.194;4.098;2023-05-02T02:25:25;13.50;;;12.47;;
14528;SDS011;7351;51.194;4.098;2023-05-02T02:27:53;13.33;;;12.53;;
14528;SDS011;7351;51.194;4.098;2023-05-02T02:30:22;15.00;;;13.80;;
14528;SDS011;7351;51.194;4.098;2023-05-02T02:32:48;14.13;;;13.03;;
14528;SDS011;7351;51.194;4.098;2023-05-02T02:35:16;14.37;;;13.47;;
14528;SDS011;7351;51.194;4.098;2023-05-02T02:37:46;15.10;;;13.90;;
14528;SDS011;7351;51.194;4.098;2023-05-02T02:40:17;14.73;;;13.73;;
14528;SDS011;7351;51.194;4.098;2023-05-02T02:42:49;14.50;;;13.50;;
14528;SDS011;7351;51.194;4.098;2023-05-02T02:45:26;15.33;;;14.33;;
14528;SDS011;7351;51.194;4.098;2023-05-02T02:48:10;14.87;;;13.87;;
14528;SDS011;7351;51.194;4.098;2023-05-02T02:50:53;14.00;;;13.00;;
14528;SDS011;7351;51.194;4.098;2023-05-02T02:53:30;14.67;;;13.57;;
14528;SDS011;7351;51.194;4.098;2023-05-02T02:56:01;16.20;;;15.00;;
14528;SDS011;7351;51.194;4.098;2023-05-02T02:58:35;15.13;;;14.13;;
14528;SDS011;7351;51.194;4.098;2023-05-02T03:01:10;14.33;;;13.33;;
14528;SDS011;7351;51.194;4.098;2023-05-02T03:03:43;14.80;;;13.80;;
14528;SDS011;7351;51.194;4.098;2023-05-02T03:06:12;16.20;;;15.10;;
14528;SDS011;7351;51.194;4.098;2023-05-02T03:08:41;16.93;;;15.73;;
14528;SDS011;7351;51.194;4.098;2023-05-02T03:11:09;15.57;;;14.57;;
14528;SDS011;7351;51.194;4.098;2023-05-02T03:13:36;16.00;;;14.60;;
14528;SDS011;7351;51.194;4.098;2023-05-02T03:18:57;15.30;;;14.30;;
14528;SDS011;7351;51.194;4.098;2023-05-02T03:21:24;17.20;;;16.10;;
14528;SDS011;7351;51.194;4.098;2023-05-02T03:23:52;14.90;;;13.90;;
14528;SDS011;7351;51.194;4.098;2023-05-02T03:26:20;17.03;;;15.87;;
14528;SDS011;7351;51.194;4.098;2023-05-02T03:28:47;15.07;;;14.10;;
14528;SDS011;7351;51.194;4.098;2023-05-02T03:31:15;15.30;;;14.30;;
14528;SDS011;7351;51.194;4.098;2023-05-02T03:33:42;16.73;;;15.60;;
14528;SDS011;7351;51.194;4.098;2023-05-02T03:36:09;15.07;;;13.97;;
14528;SDS011;7351;51.194;4.098;2023-05-02T03:38:36;15.67;;;14.67;;
14528;SDS011;7351;51.194;4.098;2023-05-02T03:41:04;16.43;;;15.33;;
14528;SDS011;7351;51.194;4.098;2023-05-02T03:43:31;17.87;;;16.53;;
14528;SDS011;7351;51.194;4.098;2023-05-02T03:46:03;17.10;;;16.00;;
14528;SDS011;7351;51.194;4.098;2023-05-02T03:48:34;16.57;;;15.37;;
14528;SDS011;7351;51.194;4.098;2023-05-02T03:51:01;16.13;;;14.87;;
14528;SDS011;7351;51.194;4.098;2023-05-02T03:53:28;17.50;;;16.17;;
14528;SDS011;7351;51.194;4.098;2023-05-02T03:55:56;16.63;;;15.53;;
14528;SDS011;7351;51.194;4.098;2023-05-02T03:58:25;16.63;;;15.53;;
14528;SDS011;7351;51.194;4.098;2023-05-02T04:00:52;14.53;;;13.63;;
14528;SDS011;7351;51.194;4.098;2023-05-02T04:03:19;16.10;;;15.00;;
14528;SDS011;7351;51.194;4.098;2023-05-02T04:05:48;17.00;;;15.80;;
14528;SDS011;7351;51.194;4.098;2023-05-02T04:08:15;15.17;;;14.17;;
14528;SDS011;7351;51.194;4.098;2023-05-02T04:10:42;15.37;;;14.37;;
14528;SDS011;7351;51.194;4.098;2023-05-02T04:13:09;14.67;;;13.60;;
14528;SDS011;7351;51.194;4.098;2023-05-02T04:15:38;15.37;;;14.37;;
14528;SDS011;7351;51.194;4.098;2023-05-02T04:18:05;14.10;;;13.07;;
14528;SDS011;7351;51.194;4.098;2023-05-02T04:20:32;12.67;;;11.63;;
14528;SDS011;7351;51.194;4.098;2023-05-02T04:22:59;13.13;;;12.23;;
14528;SDS011;7351;51.194;4.098;2023-05-02T04:25:26;13.23;;;12.37;;
14528;SDS011;7351;51.194;4.098;2023-05-02T04:27:53;12.27;;;11.33;;
14528;SDS011;7351;51.194;4.098;2023-05-02T04:30:21;11.53;;;10.83;;
14528;SDS011;7351;51.194;4.098;2023-05-02T04:32:50;11.70;;;10.73;;
14528;SDS011;7351;51.194;4.098;2023-05-02T04:35:17;11.57;;;10.77;;
14528;SDS011;7351;51.194;4.098;2023-05-02T04:37:44;10.27;;;9.57;;
14528;SDS011;7351;51.194;4.098;2023-05-02T04:40:12;10.73;;;9.93;;
14528;SDS011;7351;51.194;4.098;2023-05-02T04:42:39;9.77;;;9.07;;
14528;SDS011;7351;51.194;4.098;2023-05-02T04:45:07;8.57;;;7.90;;
14528;SDS011;7351;51.194;4.098;2023-05-02T04:47:34;9.37;;;8.57;;
14528;SDS011;7351;51.194;4.098;2023-05-02T04:50:03;8.37;;;7.77;;
14528;SDS011;7351;51.194;4.098;2023-05-02T04:52:31;6.77;;;6.37;;
14528;SDS011;7351;51.194;4.098;2023-05-02T04:54:58;7.37;;;6.77;;
14528;SDS011;7351;51.194;4.098;2023-05-02T04:57:24;6.93;;;6.33;;
14528;SDS011;7351;51.194;4.098;2023-05-02T04:59:51;6.57;;;6.07;;
14528;SDS011;7351;51.194;4.098;2023-05-02T05:02:18;6.17;;;5.70;;
14528;SDS011;7351;51.194;4.098;2023-05-02T05:04:45;6.07;;;4.97;;
14528;SDS011;7351;51.194;4.098;2023-05-02T05:07:14;7.03;;;6.43;;
14528;SDS011;7351;51.194;4.098;2023-05-02T05:09:41;5.80;;;5.40;;
14528;SDS011;7351;51.194;4.098;2023-05-02T05:12:08;6.77;;;6.17;;
14528;SDS011;7351;51.194;4.098;2023-05-02T05:14:35;10.13;;;5.70;;
14528;SDS011;7351;51.194;4.098;2023-05-02T05:17:02;6.67;;;6.03;;
14528;SDS011;7351;51.194;4.098;2023-05-02T05:19:29;7.87;;;7.07;;
14528;SDS011;7351;51.194;4.098;2023-05-02T05:21:56;6.90;;;6.07;;
14528;SDS011;7351;51.194;4.098;2023-05-02T05:24:24;7.70;;;6.67;;
14528;SDS011;7351;51.194;4.098;2023-05-02T05:26:51;7.57;;;6.90;;
14528;SDS011;7351;51.194;4.098;2023-05-02T05:29:18;10.27;;;7.60;;
14528;SDS011;7351;51.194;4.098;2023-05-02T05:31:45;10.40;;;7.40;;
14528;SDS011;7351;51.194;4.098;2023-05-02T05:34:18;13.23;;;7.33;;
14528;SDS011;7351;51.194;4.098;2023-05-02T05:36:45;16.17;;;7.23;;
14528;SDS011;7351;51.194;4.098;2023-05-02T05:39:12;7.90;;;6.77;;
14528;SDS011;7351;51.194;4.098;2023-05-02T05:41:40;10.03;;;6.63;;
14528;SDS011;7351;51.194;4.098;2023-05-02T05:44:07;7.37;;;6.63;;
14528;SDS011;7351;51.194;4.098;2023-05-02T05:46:34;8.37;;;6.63;;
14528;SDS011;7351;51.194;4.098;2023-05-02T05:49:02;9.53;;;5.97;;
14528;SDS011;7351;51.194;4.098;2023-05-02T05:51:28;11.57;;;7.57;;
14528;SDS011;7351;51.194;4.098;2023-05-02T05:53:55;6.83;;;5.43;;
14528;SDS011;7351;51.194;4.098;2023-05-02T05:56:22;7.70;;;6.00;;
14528;SDS011;7351;51.194;4.098;2023-05-02T05:58:51;11.47;;;6.27;;
14528;SDS011;7351;51.194;4.098;2023-05-02T06:01:18;12.30;;;6.50;;
14528;SDS011;7351;51.194;4.098;2023-05-02T06:03:45;12.87;;;5.97;;
14528;SDS011;7351;51.194;4.098;2023-05-02T06:06:13;10.07;;;6.13;;
14528;SDS011;7351;51.194;4.098;2023-05-02T06:08:40;5.57;;;5.03;;
14528;SDS011;7351;51.194;4.098;2023-05-02T06:11:07;8.77;;;5.40;;
14528;SDS011;7351;51.194;4.098;2023-05-02T06:13:35;6.33;;;5.40;;
14528;SDS011;7351;51.194;4.098;2023-05-02T06:16:04;8.30;;;4.93;;
14528;SDS011;7351;51.194;4.098;2023-05-02T06:18:31;8.63;;;5.57;;
14528;SDS011;7351;51.194;4.098;2023-05-02T06:21:02;14.10;;;5.63;;
14528;SDS011;7351;51.194;4.098;2023-05-02T06:23:29;10.77;;;5.10;;
14528;SDS011;7351;51.194;4.098;2023-05-02T06:25:57;7.00;;;5.23;;
14528;SDS011;7351;51.194;4.098;2023-05-02T06:28:24;8.93;;;5.13;;
14528;SDS011;7351;51.194;4.098;2023-05-02T06:30:55;18.00;;;5.97;;
14528;SDS011;7351;51.194;4.098;2023-05-02T06:33:24;10.27;;;5.67;;
14528;SDS011;7351;51.194;4.098;2023-05-02T06:35:52;10.93;;;5.73;;
14528;SDS011;7351;51.194;4.098;2023-05-02T06:38:18;9.33;;;4.80;;
14528;SDS011;7351;51.194;4.098;2023-05-02T06:40:46;12.40;;;4.93;;
14528;SDS011;7351;51.194;4.098;2023-05-02T06:43:13;9.60;;;5.67;;
14528;SDS011;7351;51.194;4.098;2023-05-02T06:45:40;9.63;;;5.37;;
14528;SDS011;7351;51.194;4.098;2023-05-02T06:48:07;11.70;;;5.30;;
14528;SDS011;7351;51.194;4.098;2023-05-02T06:50:36;8.43;;;5.87;;
14528;SDS011;7351;51.194;4.098;2023-05-02T06:53:03;7.63;;;5.43;;
14528;SDS011;7351;51.194;4.098;2023-05-02T06:55:30;10.10;;;5.07;;
14528;SDS011;7351;51.194;4.098;2023-05-02T06:57:57;7.77;;;5.53;;
14528;SDS011;7351;51.194;4.098;2023-05-02T07:00:24;16.00;;;5.73;;
14528;SDS011;7351;51.194;4.098;2023-05-02T07:02:51;10.03;;;5.13;;
14528;SDS011;7351;51.194;4.098;2023-05-02T07:05:18;8.03;;;4.77;;
14528;SDS011;7351;51.194;4.098;2023-05-02T07:07:47;5.13;;;4.53;;
14528;SDS011;7351;51.194;4.098;2023-05-02T07:10:14;11.73;;;4.87;;
14528;SDS011;7351;51.194;4.098;2023-05-02T07:12:40;6.33;;;4.60;;
14528;SDS011;7351;51.194;4.098;2023-05-02T07:15:07;6.27;;;4.60;;
14528;SDS011;7351;51.194;4.098;2023-05-02T07:17:35;7.67;;;5.17;;
14528;SDS011;7351;51.194;4.098;2023-05-02T07:20:02;8.60;;;4.50;;
14528;SDS011;7351;51.194;4.098;2023-05-02T07:22:29;10.10;;;4.97;;
14528;SDS011;7351;51.194;4.098;2023-05-02T07:24:58;4.93;;;4.23;;
14528;SDS011;7351;51.194;4.098;2023-05-02T07:27:26;6.03;;;5.03;;
14528;SDS011;7351;51.194;4.098;2023-05-02T07:29:53;9.33;;;4.83;;
14528;SDS011;7351;51.194;4.098;2023-05-02T07:32:20;6.30;;;4.77;;
14528;SDS011;7351;51.194;4.098;2023-05-02T07:34:48;6.20;;;5.63;;
14528;SDS011;7351;51.194;4.098;2023-05-02T07:37:18;8.57;;;5.80;;
14528;SDS011;7351;51.194;4.098;2023-05-02T07:39:45;9.37;;;4.80;;
14528;SDS011;7351;51.194;4.098;2023-05-02T07:42:13;5.00;;;4.60;;
14528;SDS011;7351;51.194;4.098;2023-05-02T07:44:40;5.33;;;4.83;;
14528;SDS011;7351;51.194;4.098;2023-05-02T07:47:07;6.43;;;5.00;;
14528;SDS011;7351;51.194;4.098;2023-05-02T07:49:34;5.43;;;4.97;;
14528;SDS011;7351;51.194;4.098;2023-05-02T07:52:02;10.63;;;4.60;;
14528;SDS011;7351;51.194;4.098;2023-05-02T07:54:30;6.70;;;5.73;;
14528;SDS011;7351;51.194;4.098;2023-05-02T07:56:56;7.50;;;5.23;;
14528;SDS011;7351;51.194;4.098;2023-05-02T07:59:28;7.23;;;6.03;;
14528;SDS011;7351;51.194;4.098;2023-05-02T08:01:55;6.83;;;5.30;;
14528;SDS011;7351;51.194;4.098;2023-05-02T08:04:22;6.63;;;5.03;;
14528;SDS011;7351;51.194;4.098;2023-05-02T08:06:49;9.23;;;5.67;;
14528;SDS011;7351;51.194;4.098;2023-05-02T08:09:16;10.67;;;9.67;;
14528;SDS011;7351;51.194;4.098;2023-05-02T08:11:43;13.13;;;5.43;;
14528;SDS011;7351;51.194;4.098;2023-05-02T08:14:10;10.23;;;6.50;;
14528;SDS011;7351;51.194;4.098;2023-05-02T08:16:39;8.90;;;5.97;;
14528;SDS011;7351;51.194;4.098;2023-05-02T08:19:06;13.33;;;6.00;;
14528;SDS011;7351;51.194;4.098;2023-05-02T08:21:32;9.50;;;6.57;;
14528;SDS011;7351;51.194;4.098;2023-05-02T08:24:00;10.17;;;5.73;;
14528;SDS011;7351;51.194;4.098;2023-05-02T08:26:27;6.10;;;5.53;;
14528;SDS011;7351;51.194;4.098;2023-05-02T08:28:54;6.83;;;5.53;;
14528;SDS011;7351;51.194;4.098;2023-05-02T08:31:21;11.47;;;6.23;;
14528;SDS011;7351;51.194;4.098;2023-05-02T08:33:49;9.50;;;6.17;;
14528;SDS011;7351;51.194;4.098;2023-05-02T08:36:16;9.93;;;6.10;;
14528;SDS011;7351;51.194;4.098;2023-05-02T08:38:44;8.10;;;5.43;;
14528;SDS011;7351;51.194;4.098;2023-05-02T08:41:13;8.50;;;6.23;;
14528;SDS011;7351;51.194;4.098;2023-05-02T08:43:40;8.57;;;5.17;;
14528;SDS011;7351;51.194;4.098;2023-05-02T08:46:08;7.43;;;6.40;;
14528;SDS011;7351;51.194;4.098;2023-05-02T08:48:36;7.17;;;6.27;;
14528;SDS011;7351;51.194;4.098;2023-05-02T08:51:06;7.53;;;6.23;;
14528;SDS011;7351;51.194;4.098;2023-05-02T08:53:34;18.57;;;6.70;;
14528;SDS011;7351;51.194;4.098;2023-05-02T08:56:02;7.30;;;6.43;;
14528;SDS011;7351;51.194;4.098;2023-05-02T08:58:29;9.73;;;6.73;;
14528;SDS011;7351;51.194;4.098;2023-05-02T09:00:57;9.27;;;7.33;;
14528;SDS011;7351;51.194;4.098;2023-05-02T09:03:28;11.67;;;6.43;;
14528;SDS011;7351;51.194;4.098;2023-05-02T09:06:02;7.63;;;6.50;;
14528;SDS011;7351;51.194;4.098;2023-05-02T09:08:34;8.17;;;6.47;;
14528;SDS011;7351;51.194;4.098;2023-05-02T09:11:01;11.40;;;7.03;;
14528;SDS011;7351;51.194;4.098;2023-05-02T09:13:32;10.70;;;6.73;;
14528;SDS011;7351;51.194;4.098;2023-05-02T09:16:01;12.17;;;8.07;;
14528;SDS011;7351;51.194;4.098;2023-05-02T09:18:30;9.80;;;8.00;;
14528;SDS011;7351;51.194;4.098;2023-05-02T09:20:59;13.13;;;8.70;;
14528;SDS011;7351;51.194;4.098;2023-05-02T09:23:37;10.50;;;8.10;;
14528;SDS011;7351;51.194;4.098;2023-05-02T09:26:12;10.50;;;8.60;;
14528;SDS011;7351;51.194;4.098;2023-05-02T09:28:42;10.33;;;7.73;;
14528;SDS011;7351;51.194;4.098;2023-05-02T09:31:10;13.00;;;8.37;;
14528;SDS011;7351;51.194;4.098;2023-05-02T09:33:39;13.23;;;8.80;;
14528;SDS011;7351;51.194;4.098;2023-05-02T09:36:07;11.03;;;8.40;;
14528;SDS011;7351;51.194;4.098;2023-05-02T09:38:34;16.33;;;9.00;;
14528;SDS011;7351;51.194;4.098;2023-05-02T09:41:03;17.70;;;9.27;;
14528;SDS011;7351;51.194;4.098;2023-05-02T09:43:30;12.97;;;7.47;;
14528;SDS011;7351;51.194;4.098;2023-05-02T09:45:58;11.60;;;7.60;;
14528;SDS011;7351;51.194;4.098;2023-05-02T09:48:27;13.33;;;7.90;;
14528;SDS011;7351;51.194;4.098;2023-05-02T09:50:55;15.07;;;7.47;;
14528;SDS011;7351;51.194;4.098;2023-05-02T09:53:23;11.63;;;6.40;;
14528;SDS011;7351;51.194;4.098;2023-05-02T09:56:02;14.77;;;6.73;;
14528;SDS011;7351;51.194;4.098;2023-05-02T09:58:29;14.80;;;6.93;;
14528;SDS011;7351;51.194;4.098;2023-05-02T10:00:57;15.83;;;7.83;;
14528;SDS011;7351;51.194;4.098;2023-05-02T10:03:24;9.90;;;6.13;;
14528;SDS011;7351;51.194;4.098;2023-05-02T10:05:52;10.97;;;6.50;;
14528;SDS011;7351;51.194;4.098;2023-05-02T10:08:21;11.50;;;6.67;;
14528;SDS011;7351;51.194;4.098;2023-05-02T10:10:51;11.37;;;6.80;;
14528;SDS011;7351;51.194;4.098;2023-05-02T10:13:21;9.03;;;5.87;;
14528;SDS011;7351;51.194;4.098;2023-05-02T10:15:56;12.70;;;7.23;;
14528;SDS011;7351;51.194;4.098;2023-05-02T10:18:26;10.03;;;5.97;;
14528;SDS011;7351;51.194;4.098;2023-05-02T10:20:58;7.67;;;5.87;;
14528;SDS011;7351;51.194;4.098;2023-05-02T10:23:27;12.33;;;6.63;;
14528;SDS011;7351;51.194;4.098;2023-05-02T10:25:55;8.47;;;6.33;;
14528;SDS011;7351;51.194;4.098;2023-05-02T10:28:26;9.87;;;7.20;;
14528;SDS011;7351;51.194;4.098;2023-05-02T10:30:55;7.73;;;6.30;;
14528;SDS011;7351;51.194;4.098;2023-05-02T10:33:26;12.27;;;6.37;;
14528;SDS011;7351;51.194;4.098;2023-05-02T10:35:55;11.73;;;6.10;;
14528;SDS011;7351;51.194;4.098;2023-05-02T10:38:22;11.20;;;6.37;;
14528;SDS011;7351;51.194;4.098;2023-05-02T10:40:51;10.93;;;5.43;;
14528;SDS011;7351;51.194;4.098;2023-05-02T10:43:22;11.03;;;5.73;;
14528;SDS011;7351;51.194;4.098;2023-05-02T10:45:52;10.77;;;5.80;;
14528;SDS011;7351;51.194;4.098;2023-05-02T10:48:20;8.43;;;5.43;;
14528;SDS011;7351;51.194;4.098;2023-05-02T10:50:49;17.90;;;6.30;;
14528;SDS011;7351;51.194;4.098;2023-05-02T10:53:21;15.13;;;6.03;;
14528;SDS011;7351;51.194;4.098;2023-05-02T10:58:38;11.57;;;6.23;;
14528;SDS011;7351;51.194;4.098;2023-05-02T11:04:02;8.90;;;5.30;;
14528;SDS011;7351;51.194;4.098;2023-05-02T11:06:30;16.37;;;6.27;;
14528;SDS011;7351;51.194;4.098;2023-05-02T11:11:57;10.83;;;6.13;;
14528;SDS011;7351;51.194;4.098;2023-05-02T11:14:44;9.80;;;4.83;;
14528;SDS011;7351;51.194;4.098;2023-05-02T11:17:16;10.80;;;5.67;;
14528;SDS011;7351;51.194;4.098;2023-05-02T11:22:48;7.40;;;4.63;;
14528;SDS011;7351;51.194;4.098;2023-05-02T11:31:05;8.20;;;4.83;;
14528;SDS011;7351;51.194;4.098;2023-05-02T11:33:35;8.67;;;4.67;;
14528;SDS011;7351;51.194;4.098;2023-05-02T11:36:02;6.07;;;4.50;;
14528;SDS011;7351;51.194;4.098;2023-05-02T11:38:38;12.60;;;5.77;;
14528;SDS011;7351;51.194;4.098;2023-05-02T11:41:05;9.80;;;5.77;;
14528;SDS011;7351;51.194;4.098;2023-05-02T11:43:32;6.63;;;4.70;;
14528;SDS011;7351;51.194;4.098;2023-05-02T11:45:59;8.50;;;4.97;;
14528;SDS011;7351;51.194;4.098;2023-05-02T11:48:29;17.07;;;5.33;;
14528;SDS011;7351;51.194;4.098;2023-05-02T11:50:58;10.07;;;5.07;;
14528;SDS011;7351;51.194;4.098;2023-05-02T11:53:29;8.73;;;4.70;;
14528;SDS011;7351;51.194;4.098;2023-05-02T11:55:57;10.23;;;4.73;;
14528;SDS011;7351;51.194;4.098;2023-05-02T11:58:25;9.30;;;4.93;;
14528;SDS011;7351;51.194;4.098;2023-05-02T12:00:54;11.00;;;4.47;;
14528;SDS011;7351;51.194;4.098;2023-05-02T12:03:26;9.97;;;4.43;;
14528;SDS011;7351;51.194;4.098;2023-05-02T12:05:54;11.03;;;5.27;;
14528;SDS011;7351;51.194;4.098;2023-05-02T12:08:24;12.33;;;4.70;;
14528;SDS011;7351;51.194;4.098;2023-05-02T12:10:53;7.27;;;4.70;;
14528;SDS011;7351;51.194;4.098;2023-05-02T12:13:22;10.77;;;5.53;;
14528;SDS011;7351;51.194;4.098;2023-05-02T12:15:50;5.90;;;4.37;;
14528;SDS011;7351;51.194;4.098;2023-05-02T12:18:18;10.37;;;4.80;;
14528;SDS011;7351;51.194;4.098;2023-05-02T12:20:47;8.47;;;5.10;;
14528;SDS011;7351;51.194;4.098;2023-05-02T12:23:15;10.10;;;5.73;;
14528;SDS011;7351;51.194;4.098;2023-05-02T12:25:45;7.63;;;4.63;;
14528;SDS011;7351;51.194;4.098;2023-05-02T12:28:12;7.50;;;4.70;;
14528;SDS011;7351;51.194;4.098;2023-05-02T12:30:40;7.77;;;4.03;;
14528;SDS011;7351;51.194;4.098;2023-05-02T12:33:07;9.60;;;4.73;;
14528;SDS011;7351;51.194;4.098;2023-05-02T12:35:34;7.70;;;4.80;;
14528;SDS011;7351;51.194;4.098;2023-05-02T12:38:08;8.00;;;4.80;;
14528;SDS011;7351;51.194;4.098;2023-05-02T12:40:46;8.90;;;4.20;;
14528;SDS011;7351;51.194;4.098;2023-05-02T12:43:17;6.60;;;4.90;;
14528;SDS011;7351;51.194;4.098;2023-05-02T12:45:46;6.57;;;4.33;;
14528;SDS011;7351;51.194;4.098;2023-05-02T12:48:17;6.90;;;4.27;;
14528;SDS011;7351;51.194;4.098;2023-05-02T12:50:45;8.90;;;4.30;;
14528;SDS011;7351;51.194;4.098;2023-05-02T12:53:12;5.17;;;3.70;;
14528;SDS011;7351;51.194;4.098;2023-05-02T12:55:40;5.73;;;3.97;;
14528;SDS011;7351;51.194;4.098;2023-05-02T12:58:08;6.40;;;3.80;;
14528;SDS011;7351;51.194;4.098;2023-05-02T13:00:38;6.30;;;3.83;;
14528;SDS011;7351;51.194;4.098;2023-05-02T13:03:06;7.63;;;3.40;;
14528;SDS011;7351;51.194;4.098;2023-05-02T13:05:34;7.97;;;4.00;;
14528;SDS011;7351;51.194;4.098;2023-05-02T13:08:01;7.60;;;4.33;;
14528;SDS011;7351;51.194;4.098;2023-05-02T13:10:28;7.50;;;3.87;;
14528;SDS011;7351;51.194;4.098;2023-05-02T13:12:55;11.10;;;4.47;;
14528;SDS011;7351;51.194;4.098;2023-05-02T13:15:23;6.73;;;3.73;;
14528;SDS011;7351;51.194;4.098;2023-05-02T13:17:50;6.63;;;3.80;;
14528;SDS011;7351;51.194;4.098;2023-05-02T13:20:17;10.20;;;3.63;;
14528;SDS011;7351;51.194;4.098;2023-05-02T13:22:44;7.07;;;4.07;;
14528;SDS011;7351;51.194;4.098;2023-05-02T13:25:11;7.23;;;3.77;;
14528;SDS011;7351;51.194;4.098;2023-05-02T13:27:38;8.10;;;3.07;;
14528;SDS011;7351;51.194;4.098;2023-05-02T13:30:07;6.30;;;3.67;;
14528;SDS011;7351;51.194;4.098;2023-05-02T13:32:37;5.10;;;3.27;;
14528;SDS011;7351;51.194;4.098;2023-05-02T13:35:04;7.23;;;3.33;;
14528;SDS011;7351;51.194;4.098;2023-05-02T13:37:32;5.40;;;3.33;;
14528;SDS011;7351;51.194;4.098;2023-05-02T13:39:59;5.97;;;3.73;;
14528;SDS011;7351;51.194;4.098;2023-05-02T13:42:26;16.27;;;5.07;;
14528;SDS011;7351;51.194;4.098;2023-05-02T13:44:53;7.67;;;3.43;;
14528;SDS011;7351;51.194;4.098;2023-05-02T13:47:20;6.87;;;4.00;;
14528;SDS011;7351;51.194;4.098;2023-05-02T13:49:48;11.90;;;3.43;;
14528;SDS011;7351;51.194;4.098;2023-05-02T13:52:15;8.27;;;3.50;;
14528;SDS011;7351;51.194;4.098;2023-05-02T13:54:42;7.17;;;3.43;;
14528;SDS011;7351;51.194;4.098;2023-05-02T13:57:09;6.97;;;3.83;;
14528;SDS011;7351;51.194;4.098;2023-05-02T13:59:36;11.23;;;4.60;;
14528;SDS011;7351;51.194;4.098;2023-05-02T14:02:03;9.07;;;3.40;;
14528;SDS011;7351;51.194;4.098;2023-05-02T14:04:30;10.40;;;3.57;;
14528;SDS011;7351;51.194;4.098;2023-05-02T14:06:58;6.33;;;3.50;;
14528;SDS011;7351;51.194;4.098;2023-05-02T14:09:25;9.93;;;3.23;;
14528;SDS011;7351;51.194;4.098;2023-05-02T14:11:52;5.60;;;2.77;;
14528;SDS011;7351;51.194;4.098;2023-05-02T14:14:20;8.40;;;3.50;;
14528;SDS011;7351;51.194;4.098;2023-05-02T14:16:47;12.37;;;3.90;;
14528;SDS011;7351;51.194;4.098;2023-05-02T14:19:14;7.20;;;3.23;;
14528;SDS011;7351;51.194;4.098;2023-05-02T14:21:41;8.87;;;3.87;;
14528;SDS011;7351;51.194;4.098;2023-05-02T14:24:09;11.60;;;3.27;;
14528;SDS011;7351;51.194;4.098;2023-05-02T14:26:39;8.30;;;3.97;;
14528;SDS011;7351;51.194;4.098;2023-05-02T14:29:05;6.43;;;3.03;;
14528;SDS011;7351;51.194;4.098;2023-05-02T14:31:33;14.60;;;3.67;;
14528;SDS011;7351;51.194;4.098;2023-05-02T14:34:00;9.37;;;3.40;;
14528;SDS011;7351;51.194;4.098;2023-05-02T14:36:27;10.93;;;3.60;;
14528;SDS011;7351;51.194;4.098;2023-05-02T14:38:54;10.60;;;3.83;;
14528;SDS011;7351;51.194;4.098;2023-05-02T14:41:22;12.32;;;3.92;;
14528;SDS011;7351;51.194;4.098;2023-05-02T14:43:50;13.93;;;4.40;;
14528;SDS011;7351;51.194;4.098;2023-05-02T14:46:17;16.93;;;5.00;;
14528;SDS011;7351;51.194;4.098;2023-05-02T14:48:44;9.63;;;4.60;;
14528;SDS011;7351;51.194;4.098;2023-05-02T14:51:11;18.60;;;4.80;;
14528;SDS011;7351;51.194;4.098;2023-05-02T14:53:38;10.15;;;5.18;;
14528;SDS011;7351;51.194;4.098;2023-05-02T14:56:10;8.90;;;4.77;;
14528;SDS011;7351;51.194;4.098;2023-05-02T14:58:39;8.95;;;5.07;;
14528;SDS011;7351;51.194;4.098;2023-05-02T15:01:05;10.90;;;6.20;;
14528;SDS011;7351;51.194;4.098;2023-05-02T15:03:40;11.52;;;6.93;;
14528;SDS011;7351;51.194;4.098;2023-05-02T15:06:07;11.90;;;6.50;;
14528;SDS011;7351;51.194;4.098;2023-05-02T15:08:34;18.85;;;9.23;;
14528;SDS011;7351;51.194;4.098;2023-05-02T15:11:01;13.07;;;6.97;;
14528;SDS011;7351;51.194;4.098;2023-05-02T15:13:28;15.77;;;6.80;;
14528;SDS011;7351;51.194;4.098;2023-05-02T15:15:56;18.17;;;6.93;;